sensor_id;sensor_type;location;lat;lon;timestamp;pressure;altitude;pressure_sealevel;temperature;humidity
41306;BME280;27051;50.376;19.152;2023-10-31T13:55:52;96698.20;;;14.79;63.63
41306;BME280;27051;50.376;19.152;2023-10-31T13:58:21;96698.33;;;14.72;63.84
41306;BME280;27051;50.376;19.152;2023-10-31T14:01:28;96693.17;;;14.70;63.97
41306;BME280;27051;50.376;19.152;2023-10-31T14:04:08;96688.40;;;14.69;64.12
41306;BME280;27051;50.376;19.152;2023-10-31T14:07:06;96689.47;;;14.69;64.40
41306;BME280;27051;50.376;19.152;2023-10-31T14:09:53;96692.66;;;14.66;64.54
41306;BME280;27051;50.376;19.152;2023-10-31T14:12:19;96701.95;;;14.65;64.78
41306;BME280;27051;50.376;19.152;2023-10-31T14:15:08;96712.00;;;14.63;64.80
41306;BME280;27051;50.376;19.152;2023-10-31T14:17:55;96717.51;;;14.61;65.35
41306;BME280;27051;50.376;19.152;2023-10-31T14:20:25;96726.64;;;14.58;65.67
41306;BME280;27051;50.376;19.152;2023-10-31T14:22:58;96726.44;;;14.56;65.62
41306;BME280;27051;50.376;19.152;2023-10-31T14:25:50;96725.66;;;14.57;65.75
41306;BME280;27051;50.376;19.152;2023-10-31T14:28:25;96729.61;;;14.53;66.19
41306;BME280;27051;50.376;19.152;2023-10-31T14:33:54;96724.60;;;14.49;66.08
41306;BME280;27051;50.376;19.152;2023-10-31T14:36:47;96733.16;;;14.49;66.75
41306;BME280;27051;50.376;19.152;2023-10-31T14:39:55;96738.73;;;14.49;67.32
41306;BME280;27051;50.376;19.152;2023-10-31T14:42:41;96736.95;;;14.40;67.33
41306;BME280;27051;50.376;19.152;2023-10-31T14:48:34;96743.58;;;14.30;67.99
41306;BME280;27051;50.376;19.152;2023-10-31T14:51:21;96744.08;;;14.25;68.10
41306;BME280;27051;50.376;19.152;2023-10-31T14:53:59;96744.94;;;14.22;68.10
41306;BME280;27051;50.376;19.152;2023-10-31T14:56:39;96748.02;;;14.23;68.36
41306;BME280;27051;50.376;19.152;2023-10-31T14:59:36;96747.41;;;14.22;68.21
41306;BME280;27051;50.376;19.152;2023-10-31T15:02:23;96744.10;;;14.21;68.48
41306;BME280;27051;50.376;19.152;2023-10-31T15:04:53;96744.55;;;14.22;68.54
41306;BME280;27051;50.376;19.152;2023-10-31T15:07:30;96747.78;;;14.24;68.93
41306;BME280;27051;50.376;19.152;2023-10-31T15:10:07;96757.20;;;14.23;68.88
41306;BME280;27051;50.376;19.152;2023-10-31T15:13:05;96766.88;;;14.20;69.06
41306;BME280;27051;50.376;19.152;2023-10-31T15:15:42;96768.35;;;14.19;69.19
41306;BME280;27051;50.376;19.152;2023-10-31T15:18:29;96761.33;;;14.17;69.23
41306;BME280;27051;50.376;19.152;2023-10-31T15:21:16;96762.96;;;14.14;69.34
41306;BME280;27051;50.376;19.152;2023-10-31T15:26:40;96741.91;;;14.11;69.13
41306;BME280;27051;50.376;19.152;2023-10-31T15:29:19;96755.37;;;14.07;69.40
41306;BME280;27051;50.376;19.152;2023-10-31T15:32:07;96771.34;;;14.09;69.20
41306;BME280;27051;50.376;19.152;2023-10-31T15:34:36;96774.36;;;14.06;69.19
41306;BME280;27051;50.376;19.152;2023-10-31T15:37:03;96775.99;;;14.06;69.32
41306;BME280;27051;50.376;19.152;2023-10-31T15:42:29;96779.13;;;14.09;69.38
41306;BME280;27051;50.376;19.152;2023-10-31T15:47:56;96778.82;;;14.08;69.44
41306;BME280;27051;50.376;19.152;2023-10-31T15:50:32;96778.61;;;14.08;69.40
41306;BME280;27051;50.376;19.152;2023-10-31T15:53:30;96775.69;;;14.03;69.56
41306;BME280;27051;50.376;19.152;2023-10-31T15:56:37;96776.08;;;14.02;69.59
41306;BME280;27051;50.376;19.152;2023-10-31T15:59:44;96770.38;;;14.01;69.62
41306;BME280;27051;50.376;19.152;2023-10-31T16:02:12;96773.48;;;13.97;69.58
41306;BME280;27051;50.376;19.152;2023-10-31T16:04:59;96773.71;;;13.98;69.74
41306;BME280;27051;50.376;19.152;2023-10-31T16:07:47;96777.33;;;13.99;69.69
41306;BME280;27051;50.376;19.152;2023-10-31T16:10:45;96777.15;;;14.03;69.89
41306;BME280;27051;50.376;19.152;2023-10-31T16:13:20;96776.83;;;14.05;69.91
41306;BME280;27051;50.376;19.152;2023-10-31T16:16:29;96776.90;;;14.07;69.86
41306;BME280;27051;50.376;19.152;2023-10-31T16:18:58;96783.01;;;14.05;69.95
41306;BME280;27051;50.376;19.152;2023-10-31T16:21:33;96786.02;;;14.06;69.98
41306;BME280;27051;50.376;19.152;2023-10-31T16:27:00;96793.58;;;14.07;70.08
41306;BME280;27051;50.376;19.152;2023-10-31T16:30:08;96802.66;;;14.10;70.04
41306;BME280;27051;50.376;19.152;2023-10-31T16:32:57;96810.39;;;14.11;70.03
41306;BME280;27051;50.376;19.152;2023-10-31T16:35:46;96811.16;;;14.09;70.15
41306;BME280;27051;50.376;19.152;2023-10-31T16:38:42;96806.23;;;14.07;70.17
41306;BME280;27051;50.376;19.152;2023-10-31T16:41:11;96808.16;;;14.06;70.34
41306;BME280;27051;50.376;19.152;2023-10-31T16:43:49;96803.18;;;14.03;70.44
41306;BME280;27051;50.376;19.152;2023-10-31T16:46:18;96801.94;;;14.03;70.61
41306;BME280;27051;50.376;19.152;2023-10-31T16:49:04;96815.20;;;14.04;70.43
41306;BME280;27051;50.376;19.152;2023-10-31T16:51:31;96820.14;;;14.03;70.49
41306;BME280;27051;50.376;19.152;2023-10-31T16:53:58;96830.80;;;14.03;70.51
41306;BME280;27051;50.376;19.152;2023-10-31T16:56:25;96833.89;;;14.01;70.33
41306;BME280;27051;50.376;19.152;2023-10-31T16:58:55;96838.38;;;14.00;70.72
41306;BME280;27051;50.376;19.152;2023-10-31T17:01:22;96841.46;;;13.98;70.48
41306;BME280;27051;50.376;19.152;2023-10-31T17:03:49;96858.38;;;13.95;70.55
41306;BME280;27051;50.376;19.152;2023-10-31T17:06:18;96866.56;;;13.92;70.68
41306;BME280;27051;50.376;19.152;2023-10-31T17:09:05;96872.98;;;13.88;70.72
41306;BME280;27051;50.376;19.152;2023-10-31T17:11:35;96878.78;;;13.83;70.83
41306;BME280;27051;50.376;19.152;2023-10-31T17:14:02;96882.11;;;13.79;70.85
41306;BME280;27051;50.376;19.152;2023-10-31T17:16:48;96883.03;;;13.76;70.81
41306;BME280;27051;50.376;19.152;2023-10-31T17:19:25;96889.91;;;13.74;71.02
41306;BME280;27051;50.376;19.152;2023-10-31T17:21:55;96893.61;;;13.72;71.19
41306;BME280;27051;50.376;19.152;2023-10-31T17:24:21;96899.25;;;13.65;71.21
41306;BME280;27051;50.376;19.152;2023-10-31T17:26:48;96903.35;;;13.63;71.21
41306;BME280;27051;50.376;19.152;2023-10-31T17:29:18;96907.83;;;13.60;71.28
41306;BME280;27051;50.376;19.152;2023-10-31T17:31:45;96918.08;;;13.60;71.51
41306;BME280;27051;50.376;19.152;2023-10-31T17:34:21;96929.89;;;13.61;71.62
41306;BME280;27051;50.376;19.152;2023-10-31T17:36:58;96936.98;;;13.59;71.38
41306;BME280;27051;50.376;19.152;2023-10-31T17:39:25;96940.08;;;13.56;71.29
41306;BME280;27051;50.376;19.152;2023-10-31T17:41:54;96938.06;;;13.51;71.26
41306;BME280;27051;50.376;19.152;2023-10-31T17:44:22;96941.39;;;13.45;71.27
41306;BME280;27051;50.376;19.152;2023-10-31T17:46:49;96949.71;;;13.40;71.26
41306;BME280;27051;50.376;19.152;2023-10-31T17:49:16;96954.26;;;13.37;71.32
41306;BME280;27051;50.376;19.152;2023-10-31T17:51:43;96957.27;;;13.33;71.43
41306;BME280;27051;50.376;19.152;2023-10-31T17:54:33;96960.02;;;13.27;71.57
41306;BME280;27051;50.376;19.152;2023-10-31T17:57:30;96958.30;;;13.18;71.57
41306;BME280;27051;50.376;19.152;2023-10-31T17:59:56;96968.46;;;13.15;71.68
41306;BME280;27051;50.376;19.152;2023-10-31T18:05:20;96976.63;;;13.09;72.27
41306;BME280;27051;50.376;19.152;2023-10-31T18:07:49;96979.30;;;13.03;71.81
41306;BME280;27051;50.376;19.152;2023-10-31T18:10:19;96981.61;;;13.03;71.90
41306;BME280;27051;50.376;19.152;2023-10-31T18:12:49;96979.91;;;12.97;71.77
41306;BME280;27051;50.376;19.152;2023-10-31T18:15:19;96980.90;;;12.89;71.73
41306;BME280;27051;50.376;19.152;2023-10-31T18:17:46;96987.80;;;12.79;71.80
41306;BME280;27051;50.376;19.152;2023-10-31T18:20:13;96989.53;;;12.70;71.62
41306;BME280;27051;50.376;19.152;2023-10-31T18:22:46;96986.27;;;12.64;71.83
41306;BME280;27051;50.376;19.152;2023-10-31T18:25:16;96992.16;;;12.57;71.74
41306;BME280;27051;50.376;19.152;2023-10-31T18:27:43;96996.83;;;12.47;71.77
41306;BME280;27051;50.376;19.152;2023-10-31T18:30:10;96999.92;;;12.35;71.75
41306;BME280;27051;50.376;19.152;2023-10-31T18:32:37;96999.61;;;12.33;72.11
41306;BME280;27051;50.376;19.152;2023-10-31T18:35:06;97002.91;;;12.32;72.03
41306;BME280;27051;50.376;19.152;2023-10-31T18:37:36;97006.54;;;12.33;72.22
41306;BME280;27051;50.376;19.152;2023-10-31T18:40:23;97010.52;;;12.30;72.22
41306;BME280;27051;50.376;19.152;2023-10-31T18:42:50;97017.90;;;12.29;72.36
41306;BME280;27051;50.376;19.152;2023-10-31T18:45:17;97026.66;;;12.27;72.69
41306;BME280;27051;50.376;19.152;2023-10-31T18:47:44;97034.04;;;12.24;72.79
41306;BME280;27051;50.376;19.152;2023-10-31T18:50:27;97030.70;;;12.21;72.42
41306;BME280;27051;50.376;19.152;2023-10-31T18:53:15;97049.97;;;12.13;72.68
41306;BME280;27051;50.376;19.152;2023-10-31T18:55:49;97055.15;;;12.05;72.69
41306;BME280;27051;50.376;19.152;2023-10-31T18:58:37;97057.93;;;11.96;72.67
41306;BME280;27051;50.376;19.152;2023-10-31T19:04:04;97061.69;;;11.80;72.90
41306;BME280;27051;50.376;19.152;2023-10-31T19:06:51;97072.35;;;11.78;72.87
41306;BME280;27051;50.376;19.152;2023-10-31T19:09:43;97073.83;;;11.79;72.86
41306;BME280;27051;50.376;19.152;2023-10-31T19:12:08;97074.80;;;11.74;72.92
41306;BME280;27051;50.376;19.152;2023-10-31T19:14:48;97081.80;;;11.76;73.08
41306;BME280;27051;50.376;19.152;2023-10-31T19:17:56;97086.06;;;11.79;72.99
41306;BME280;27051;50.376;19.152;2023-10-31T19:21:04;97083.92;;;11.80;72.95
41306;BME280;27051;50.376;19.152;2023-10-31T19:23:50;97080.95;;;11.84;73.07
41306;BME280;27051;50.376;19.152;2023-10-31T19:29:14;97080.95;;;11.84;72.70
41306;BME280;27051;50.376;19.152;2023-10-31T19:32:12;97081.07;;;11.86;72.71
41306;BME280;27051;50.376;19.152;2023-10-31T19:37:46;97090.19;;;11.84;72.61
41306;BME280;27051;50.376;19.152;2023-10-31T19:40:13;97093.17;;;11.84;72.47
41306;BME280;27051;50.376;19.152;2023-10-31T19:42:49;97093.08;;;11.80;72.41
41306;BME280;27051;50.376;19.152;2023-10-31T19:45:36;97097.45;;;11.81;72.33
41306;BME280;27051;50.376;19.152;2023-10-31T19:48:42;97096.90;;;11.86;72.39
41306;BME280;27051;50.376;19.152;2023-10-31T19:51:14;97100.25;;;11.90;72.32
41306;BME280;27051;50.376;19.152;2023-10-31T19:53:44;97099.95;;;11.90;72.31
41306;BME280;27051;50.376;19.152;2023-10-31T19:56:30;97104.02;;;11.88;72.33
41306;BME280;27051;50.376;19.152;2023-10-31T20:02:03;97110.45;;;11.82;72.30
41306;BME280;27051;50.376;19.152;2023-10-31T20:04:40;97113.84;;;11.82;72.27
41306;BME280;27051;50.376;19.152;2023-10-31T20:07:08;97117.86;;;11.84;72.32
41306;BME280;27051;50.376;19.152;2023-10-31T20:09:55;97115.02;;;11.84;72.43
41306;BME280;27051;50.376;19.152;2023-10-31T20:12:42;97116.30;;;11.87;72.33
41306;BME280;27051;50.376;19.152;2023-10-31T20:15:09;97123.84;;;11.87;72.27
41306;BME280;27051;50.376;19.152;2023-10-31T20:18:09;97129.69;;;11.82;72.28
41306;BME280;27051;50.376;19.152;2023-10-31T20:20:55;97126.90;;;11.78;72.37
41306;BME280;27051;50.376;19.152;2023-10-31T20:23:22;97124.07;;;11.80;72.40
41306;BME280;27051;50.376;19.152;2023-10-31T20:26:01;97127.47;;;11.83;72.31
41306;BME280;27051;50.376;19.152;2023-10-31T20:28:28;97129.36;;;11.79;72.12
41306;BME280;27051;50.376;19.152;2023-10-31T20:33:43;97144.86;;;11.81;72.36
41306;BME280;27051;50.376;19.152;2023-10-31T20:36:34;97150.46;;;11.81;72.33
41306;BME280;27051;50.376;19.152;2023-10-31T20:39:20;97156.04;;;11.78;72.06
41306;BME280;27051;50.376;19.152;2023-10-31T20:44:27;97151.92;;;11.74;72.29
41306;BME280;27051;50.376;19.152;2023-10-31T20:47:02;97159.06;;;11.74;72.24
41306;BME280;27051;50.376;19.152;2023-10-31T20:49:29;97157.02;;;11.76;72.37
41306;BME280;27051;50.376;19.152;2023-10-31T20:52:05;97157.67;;;11.79;72.36
41306;BME280;27051;50.376;19.152;2023-10-31T20:54:32;97154.92;;;11.81;72.43
41306;BME280;27051;50.376;19.152;2023-10-31T20:56:59;97158.98;;;11.81;72.22
41306;BME280;27051;50.376;19.152;2023-10-31T20:59:34;97160.97;;;11.78;72.27
41306;BME280;27051;50.376;19.152;2023-10-31T21:04:56;97162.54;;;11.67;72.22
41306;BME280;27051;50.376;19.152;2023-10-31T21:08:04;97164.81;;;11.63;72.40
41306;BME280;27051;50.376;19.152;2023-10-31T21:10:50;97168.80;;;11.62;72.38
41306;BME280;27051;50.376;19.152;2023-10-31T21:13:41;97176.77;;;11.59;72.47
41306;BME280;27051;50.376;19.152;2023-10-31T21:16:28;97178.16;;;11.59;72.47
41306;BME280;27051;50.376;19.152;2023-10-31T21:19:25;97184.82;;;11.58;72.48
41306;BME280;27051;50.376;19.152;2023-10-31T21:21:54;97192.02;;;11.55;72.50
41306;BME280;27051;50.376;19.152;2023-10-31T21:24:21;97195.83;;;11.52;72.52
41306;BME280;27051;50.376;19.152;2023-10-31T21:27:29;97196.81;;;11.51;72.52
41306;BME280;27051;50.376;19.152;2023-10-31T21:29:55;97199.50;;;11.50;72.61
41306;BME280;27051;50.376;19.152;2023-10-31T21:32:22;97201.95;;;11.50;72.67
41306;BME280;27051;50.376;19.152;2023-10-31T21:34:59;97199.81;;;11.50;72.68
41306;BME280;27051;50.376;19.152;2023-10-31T21:37:42;97200.21;;;11.53;72.67
41306;BME280;27051;50.376;19.152;2023-10-31T21:40:12;97203.80;;;11.50;72.66
41306;BME280;27051;50.376;19.152;2023-10-31T21:45:55;97196.48;;;11.50;72.63
41306;BME280;27051;50.376;19.152;2023-10-31T21:48:54;97198.80;;;11.50;72.62
41306;BME280;27051;50.376;19.152;2023-10-31T21:51:22;97200.85;;;11.48;72.55
41306;BME280;27051;50.376;19.152;2023-10-31T21:53:49;97198.02;;;11.49;72.79
41306;BME280;27051;50.376;19.152;2023-10-31T21:56:16;97198.08;;;11.48;72.84
41306;BME280;27051;50.376;19.152;2023-10-31T21:58:43;97202.44;;;11.46;72.81
41306;BME280;27051;50.376;19.152;2023-10-31T22:01:10;97201.61;;;11.47;72.84
41306;BME280;27051;50.376;19.152;2023-10-31T22:03:36;97202.92;;;11.48;72.90
41306;BME280;27051;50.376;19.152;2023-10-31T22:06:03;97209.08;;;11.47;72.86
41306;BME280;27051;50.376;19.152;2023-10-31T22:08:54;97215.92;;;11.48;72.94
41306;BME280;27051;50.376;19.152;2023-10-31T22:14:27;97226.41;;;11.46;72.86
41306;BME280;27051;50.376;19.152;2023-10-31T22:16:53;97227.84;;;11.41;72.83
41306;BME280;27051;50.376;19.152;2023-10-31T22:19:29;97229.19;;;11.39;73.07
41306;BME280;27051;50.376;19.152;2023-10-31T22:21:59;97229.57;;;11.34;73.06
41306;BME280;27051;50.376;19.152;2023-10-31T22:24:28;97234.67;;;11.35;73.26
41306;BME280;27051;50.376;19.152;2023-10-31T22:26:55;97234.98;;;11.35;73.01
41306;BME280;27051;50.376;19.152;2023-10-31T22:29:22;97237.60;;;11.31;73.16
41306;BME280;27051;50.376;19.152;2023-10-31T22:31:49;97240.63;;;11.26;73.03
41306;BME280;27051;50.376;19.152;2023-10-31T22:34:16;97245.92;;;11.26;73.16
41306;BME280;27051;50.376;19.152;2023-10-31T22:36:48;97248.77;;;11.32;73.31
41306;BME280;27051;50.376;19.152;2023-10-31T22:39:56;97242.81;;;11.30;73.22
41306;BME280;27051;50.376;19.152;2023-10-31T22:42:43;97244.19;;;11.35;73.29
41306;BME280;27051;50.376;19.152;2023-10-31T22:45:09;97247.80;;;11.35;73.16
41306;BME280;27051;50.376;19.152;2023-10-31T22:47:36;97249.38;;;11.37;73.25
41306;BME280;27051;50.376;19.152;2023-10-31T22:50:03;97245.83;;;11.36;73.24
41306;BME280;27051;50.376;19.152;2023-10-31T22:52:52;97250.48;;;11.34;73.10
41306;BME280;27051;50.376;19.152;2023-10-31T22:55:59;97251.22;;;11.32;73.16
41306;BME280;27051;50.376;19.152;2023-10-31T22:58:30;97255.95;;;11.29;73.23
41306;BME280;27051;50.376;19.152;2023-10-31T23:01:19;97254.66;;;11.30;73.11
41306;BME280;27051;50.376;19.152;2023-10-31T23:03:44;97263.79;;;11.29;73.17
41306;BME280;27051;50.376;19.152;2023-10-31T23:06:11;97265.92;;;11.27;73.36
41306;BME280;27051;50.376;19.152;2023-10-31T23:08:38;97270.32;;;11.24;73.23
41306;BME280;27051;50.376;19.152;2023-10-31T23:11:18;97271.94;;;11.24;73.23
41306;BME280;27051;50.376;19.152;2023-10-31T23:14:26;97277.23;;;11.24;73.32
41306;BME280;27051;50.376;19.152;2023-10-31T23:17:12;97280.06;;;11.22;73.33
41306;BME280;27051;50.376;19.152;2023-10-31T23:20:00;97283.92;;;11.23;73.27
41306;BME280;27051;50.376;19.152;2023-10-31T23:22:28;97289.84;;;11.29;73.35
41306;BME280;27051;50.376;19.152;2023-10-31T23:24:57;97296.83;;;11.28;73.33
41306;BME280;27051;50.376;19.152;2023-10-31T23:27:24;97297.42;;;11.27;73.24
41306;BME280;27051;50.376;19.152;2023-10-31T23:29:51;97305.34;;;11.27;73.30
41306;BME280;27051;50.376;19.152;2023-10-31T23:32:27;97309.27;;;11.27;73.24
41306;BME280;27051;50.376;19.152;2023-10-31T23:37:34;97320.34;;;11.33;73.25
41306;BME280;27051;50.376;19.152;2023-10-31T23:40:04;97321.18;;;11.33;73.29
41306;BME280;27051;50.376;19.152;2023-10-31T23:43:02;97327.14;;;11.35;73.26
41306;BME280;27051;50.376;19.152;2023-10-31T23:45:49;97333.15;;;11.36;73.18
41306;BME280;27051;50.376;19.152;2023-10-31T23:50:55;97342.47;;;11.33;73.09
41306;BME280;27051;50.376;19.152;2023-10-31T23:53:24;97340.75;;;11.32;73.10
41306;BME280;27051;50.376;19.152;2023-10-31T23:56:01;97347.46;;;11.32;73.07
41306;BME280;27051;50.376;19.152;2023-10-31T23:58:50;97348.78;;;11.33;73.01
